Time;durP1;ratioP1;P1;durP2;ratioP2;P2;SDS_P1;SDS_P2;PMS_P1;PMS_P2;Temp;Humidity;BMP_temperature;BMP_pressure;BME280_temperature;BME280_humidity;BME280_pressure;Samples;Min_cycle;Max_cycle;Signal;HPM_P1;HPM_P2
2021/07/21 00:07:05;;;;;;;7.90;5.82;;;;;;;;;;21090962;28;20048;-68
2021/07/21 00:17:19;;;;;;;9.75;6.75;;;;;;;;;;21086186;28;20503;-75
2021/07/21 00:27:21;;;;;;;14.60;6.85;;;28.70;25.60;;;;;;21104988;28;20051;-68
2021/07/21 00:37:23;;;;;;;10.48;7.47;;;;;;;;;;21089906;28;20047;-73
2021/07/21 00:47:26;;;;;;;12.10;7.22;;;;;;;;;;21085471;28;20058;-75
2021/07/21 00:57:28;;;;;;;9.25;6.65;;;;;;;;;;21063841;28;20101;-73
2021/07/21 01:07:30;;;;;;;10.23;6.78;;;;;;;;;;21081066;28;20044;-65
2021/07/21 01:17:46;;;;;;;12.43;6.90;;;;;;;;;;21081576;28;20400;-67
2021/07/21 01:27:56;;;;;;;9.48;7.40;;;;;;;;;;21079541;28;20062;-70
2021/07/21 01:38:00;;;;;;;8.50;6.47;;;;;;;;;;21117435;28;20051;-71
2021/07/21 01:48:02;;;;;;;9.48;6.78;;;;;;;;;;21085001;28;20055;-73
2021/07/21 01:58:05;;;;;;;10.82;6.68;;;;;;;;;;21097748;28;20080;-67
2021/07/21 02:08:08;;;;;;;9.70;6.05;;;27.80;28.40;;;;;;21121120;28;20381;-73
2021/07/21 02:18:14;;;;;;;8.50;6.30;;;27.60;28.60;;;;;;21096271;28;20544;-70
2021/07/21 02:28:18;;;;;;;10.40;5.85;;;;;;;;;;21093576;28;20408;-68
2021/07/21 02:38:21;;;;;;;10.07;7.03;;;;;;;;;;21093146;28;20066;-67
2021/07/21 02:48:25;;;;;;;10.30;6.25;;;26.90;29.40;;;;;;21091683;28;20499;-67
2021/07/21 02:58:44;;;;;;;9.52;6.97;;;26.50;29.90;;;;;;21090469;28;20054;-66
2021/07/21 03:08:49;;;;;;;9.40;6.18;;;;;;;;;;21135231;28;20062;-73
2021/07/21 03:18:56;;;;;;;9.27;5.78;;;26.20;30.40;;;;;;21141541;28;20056;-67
2021/07/21 03:28:59;;;;;;;7.15;6.22;;;25.90;31.30;;;;;;21143379;28;20051;-71
2021/07/21 03:39:03;;;;;;;9.10;5.60;;;25.40;32.20;;;;;;21094968;28;20477;-73
2021/07/21 03:49:11;;;;;;;10.93;6.03;;;24.90;33.50;;;;;;21090234;28;20048;-71
2021/07/21 03:59:18;;;;;;;9.60;5.70;;;24.80;34.00;;;;;;21088254;28;20044;-71
2021/07/21 04:09:24;;;;;;;9.77;6.28;;;24.80;34.10;;;;;;21085872;28;20055;-71
2021/07/21 04:19:32;;;;;;;9.98;6.10;;;24.60;34.70;;;;;;21092334;28;20127;-66
2021/07/21 04:29:49;;;;;;;7.68;5.28;;;25.00;34.20;;;;;;21101886;28;20055;-73
2021/07/21 04:40:05;;;;;;;10.27;6.45;;;25.10;34.30;;;;;;21083638;28;20051;-73
2021/07/21 04:50:16;;;;;;;7.90;6.20;;;24.70;35.10;;;;;;21083231;28;20540;-70
2021/07/21 05:00:19;;;;;;;8.20;6.28;;;25.00;34.80;;;;;;21081193;28;20098;-73
2021/07/21 05:10:25;;;;;;;10.70;6.55;;;24.40;36.00;;;;;;21080413;28;20479;-70
2021/07/21 05:20:27;;;;;;;13.73;6.28;;;24.50;36.30;;;;;;21062078;28;20067;-70
2021/07/21 05:30:31;;;;;;;8.05;6.10;;;24.60;37.50;;;;;;21079336;28;20134;-73
2021/07/21 05:40:36;;;;;;;11.07;6.32;;;24.70;39.90;;;;;;21079369;28;20493;-68
2021/07/21 05:50:38;;;;;;;11.02;6.80;;;24.90;40.30;;;;;;21081259;28;20408;-68
2021/07/21 06:00:41;;;;;;;11.02;6.03;;;25.00;40.30;;;;;;21122268;28;20052;-67
2021/07/21 06:10:43;;;;;;;7.53;5.38;;;25.00;40.50;;;;;;21098739;28;20090;-65
2021/07/21 06:20:45;;;;;;;8.52;5.40;;;25.10;40.40;;;;;;21129039;28;20070;-74
2021/07/21 06:30:48;;;;;;;14.07;5.93;;;25.20;40.40;;;;;;21094334;28;20051;-73
2021/07/21 06:40:49;;;;;;;14.33;7.37;;;25.40;40.70;;;;;;21092443;28;20048;-73
2021/07/21 06:50:51;;;;;;;8.55;5.30;;;25.50;40.90;;;;;;21093425;28;20074;-74
2021/07/21 07:00:52;;;;;;;14.82;5.82;;;25.70;41.80;;;;;;21075455;28;20488;-71
2021/07/21 07:10:54;;;;;;;12.00;5.70;;;26.20;42.30;;;;;;21090082;28;20087;-74
2021/07/21 07:20:56;;;;;;;14.65;5.60;;;27.00;41.40;;;;;;21089050;28;20293;-76
2021/07/21 07:30:58;;;;;;;18.65;5.45;;;;;;;;;;21093182;28;20070;-65
2021/07/21 07:40:59;;;;;;;20.83;5.78;;;29.40;36.80;;;;;;21086528;28;20445;-72
2021/07/21 07:51:01;;;;;;;14.15;5.00;;;29.00;37.80;;;;;;21086312;28;20048;-75
2021/07/21 08:01:03;;;;;;;9.98;5.32;;;29.90;36.30;;;;;;21085420;28;20094;-73
2021/07/21 08:11:05;;;;;;;10.48;5.78;;;30.50;35.10;;;;;;21086855;28;20048;-69
2021/07/21 08:21:06;;;;;;;8.40;4.97;;;30.10;35.10;;;;;;21084052;28;20060;-63
2021/07/21 08:31:08;;;;;;;11.45;4.95;;;30.50;34.60;;;;;;21083847;28;20400;-69
2021/07/21 08:41:10;;;;;;;10.73;5.07;;;;;;;;;;21083203;28;20067;-66
2021/07/21 08:51:13;;;;;;;12.13;4.45;;;31.10;33.20;;;;;;21081931;28;20412;-68
2021/07/21 09:01:17;;;;;;;16.35;5.18;;;31.10;33.20;;;;;;21081269;28;20048;-72
2021/07/21 09:11:20;;;;;;;13.98;5.15;;;31.60;32.20;;;;;;21079386;28;20081;-71
2021/07/21 09:21:24;;;;;;;8.55;5.38;;;31.90;31.30;;;;;;21078176;28;20052;-69
2021/07/21 09:31:30;;;;;;;9.73;4.45;;;32.10;30.70;;;;;;21078076;28;20056;-71
2021/07/21 09:41:34;;;;;;;13.00;5.68;;;32.40;29.80;;;;;;21060908;28;20174;-72
2021/07/21 09:51:38;;;;;;;13.52;4.63;;;32.60;29.40;;;;;;21078770;28;20044;-73
2021/07/21 10:01:40;;;;;;;10.45;4.80;;;32.60;28.70;;;;;;21078517;28;20127;-72
2021/07/21 10:11:44;;;;;;;11.20;5.05;;;33.00;28.70;;;;;;21085634;28;20058;-66
2021/07/21 10:21:51;;;;;;;11.32;4.70;;;33.10;28.40;;;;;;21102250;28;20076;-73
2021/07/21 10:31:54;;;;;;;8.02;4.65;;;33.10;27.50;;;;;;21093720;28;20052;-70
2021/07/21 10:41:56;;;;;;;6.65;4.47;;;33.10;27.10;;;;;;21094495;28;20044;-72
2021/07/21 11:02:22;;;;;;;8.00;4.50;;;33.30;26.30;;;;;;21091268;28;20479;-71
2021/07/21 11:12:33;;;;;;;10.18;4.95;;;33.60;25.30;;;;;;21090050;28;20048;-68
2021/07/21 11:22:36;;;;;;;12.55;4.18;;;33.50;25.10;;;;;;21070807;28;20059;-76
2021/07/21 11:32:37;;;;;;;5.65;3.80;;;33.40;24.80;;;;;;21089560;28;20059;-70
2021/07/21 11:42:41;;;;;;;12.00;4.40;;;33.30;24.40;;;;;;21090990;28;20100;-71
2021/07/21 11:52:43;;;;;;;8.05;4.63;;;33.50;23.80;;;;;;21078766;28;20484;-74
2021/07/21 12:02:44;;;;;;;10.70;4.65;;;33.80;23.60;;;;;;21095249;28;20113;-72
2021/07/21 12:12:46;;;;;;;11.52;4.63;;;34.00;23.30;;;;;;21086440;28;20112;-69
2021/07/21 12:22:47;;;;;;;10.93;5.53;;;34.00;23.10;;;;;;21085792;28;20416;-71
2021/07/21 12:32:52;;;;;;;10.18;5.15;;;34.20;23.00;;;;;;21084607;28;20052;-69
2021/07/21 12:42:56;;;;;;;18.90;5.13;;;34.80;21.60;;;;;;21086065;28;20408;-67
2021/07/21 12:53:19;;;;;;;9.27;5.10;;;34.80;21.10;;;;;;21082261;28;20557;-70
2021/07/21 13:03:23;;;;;;;10.80;5.13;;;35.30;20.80;;;;;;21063264;28;20052;-66
2021/07/21 13:13:27;;;;;;;11.73;4.95;;;35.30;20.70;;;;;;21080149;28;20055;-63
2021/07/21 13:23:29;;;;;;;13.20;4.90;;;35.30;20.90;;;;;;21061037;28;20051;-61
2021/07/21 13:33:32;;;;;;;8.30;4.60;;;35.30;21.10;;;;;;21060623;28;20442;-67
2021/07/21 13:43:35;;;;;;;12.68;4.95;;;35.50;20.70;;;;;;21082387;28;20048;-63
2021/07/21 13:53:37;;;;;;;9.20;4.30;;;35.50;21.20;;;;;;21096252;28;20055;-68
2021/07/21 14:03:46;;;;;;;10.07;4.88;;;35.80;20.60;;;;;;21098456;28;20058;-70
2021/07/21 14:13:48;;;;;;;9.98;4.70;;;36.00;20.00;;;;;;21100294;28;20424;-69
2021/07/21 14:23:49;;;;;;;8.45;5.10;;;36.00;20.10;;;;;;21094030;28;20089;-70
2021/07/21 14:33:51;;;;;;;9.23;5.15;;;36.20;19.80;;;;;;21094538;28;20079;-70
2021/07/21 14:43:53;;;;;;;6.32;4.53;;;36.10;19.60;;;;;;21105200;28;20405;-71
2021/07/21 14:53:55;;;;;;;11.55;4.70;;;36.30;19.80;;;;;;21090915;28;20048;-72
2021/07/21 15:03:57;;;;;;;11.38;4.70;;;36.50;19.10;;;;;;21091297;28;20048;-73
2021/07/21 15:13:59;;;;;;;11.18;5.47;;;36.50;18.90;;;;;;21088917;28;20052;-70
2021/07/21 15:24:01;;;;;;;8.85;4.82;;;36.50;19.00;;;;;;21088363;28;20058;-68
2021/07/21 15:34:08;;;;;;;6.78;4.20;;;36.50;19.10;;;;;;21087606;28;20412;-72
2021/07/21 15:44:10;;;;;;;8.35;3.80;;;36.50;19.20;;;;;;21087484;28;20051;-71
2021/07/21 15:54:13;;;;;;;7.85;4.32;;;36.60;19.20;;;;;;21086100;28;20054;-74
2021/07/21 16:04:16;;;;;;;11.40;4.47;;;36.60;18.90;;;;;;21084996;28;20044;-73
2021/07/21 16:14:20;;;;;;;9.80;4.25;;;36.50;19.10;;;;;;21085125;28;20379;-72
2021/07/21 16:24:22;;;;;;;10.20;4.28;;;36.50;19.10;;;;;;21083931;28;20135;-72
2021/07/21 16:34:23;;;;;;;7.63;3.70;;;36.50;18.80;;;;;;21083088;28;20094;-70
2021/07/21 16:44:26;;;;;;;9.63;4.30;;;36.50;18.40;;;;;;21082361;28;20048;-67
2021/07/21 16:54:28;;;;;;;6.75;4.25;;;36.30;18.70;;;;;;21063728;28;20063;-68
2021/07/21 17:04:30;;;;;;;7.40;3.50;;;36.30;18.30;;;;;;21081576;28;20051;-71
2021/07/21 17:14:32;;;;;;;6.57;3.72;;;36.10;18.30;;;;;;21062101;28;20546;-72
2021/07/21 17:24:34;;;;;;;8.30;3.83;;;36.00;18.10;;;;;;21080349;28;20056;-69
2021/07/21 17:34:36;;;;;;;9.23;4.20;;;35.80;18.40;;;;;;21079640;28;20048;-69
2021/07/21 17:44:39;;;;;;;10.68;4.13;;;35.80;18.60;;;;;;21079027;28;20056;-72
2021/07/21 17:54:42;;;;;;;10.77;4.50;;;35.80;18.50;;;;;;21061854;28;20052;-70
2021/07/21 18:04:44;;;;;;;8.52;4.60;;;35.80;18.00;;;;;;21078929;28;20048;-67
2021/07/21 18:14:45;;;;;;;7.55;4.40;;;35.70;18.20;;;;;;21045103;28;20076;-70
2021/07/21 18:24:47;;;;;;;7.65;4.65;;;35.60;18.00;;;;;;21107332;28;20556;-72
2021/07/21 18:34:49;;;;;;;8.00;4.22;;;35.60;18.30;;;;;;21090558;28;20048;-70
2021/07/21 18:44:51;;;;;;;12.43;4.50;;;35.60;17.80;;;;;;21091936;28;20048;-73
2021/07/21 18:54:54;;;;;;;11.73;4.70;;;35.40;18.50;;;;;;21093014;28;20108;-73
2021/07/21 19:04:56;;;;;;;9.57;6.05;;;35.30;18.50;;;;;;21090841;28;20054;-71
2021/07/21 19:14:58;;;;;;;11.85;4.85;;;35.10;19.00;;;;;;21109947;28;20047;-73
2021/07/21 19:25:01;;;;;;;10.23;4.65;;;34.90;18.70;;;;;;21087852;28;20139;-72
2021/07/21 19:35:03;;;;;;;9.65;4.88;;;34.70;18.90;;;;;;21087325;28;20055;-72
2021/07/21 19:45:07;;;;;;;12.68;5.70;;;34.50;19.10;;;;;;21086154;28;20381;-73
2021/07/21 19:55:09;;;;;;;19.83;5.85;;;34.50;19.70;;;;;;21086276;28;20075;-67
2021/07/21 20:05:11;;;;;;;10.63;7.15;;;34.00;19.90;;;;;;21086486;28;20048;-72
2021/07/21 20:15:14;;;;;;;9.57;6.10;;;33.90;20.40;;;;;;21067829;28;20044;-69
2021/07/21 20:25:17;;;;;;;15.60;8.10;;;33.50;21.70;;;;;;21084539;28;20052;-69
2021/07/21 20:35:19;;;;;;;16.88;9.20;;;33.30;21.40;;;;;;21084594;28;20044;-67
2021/07/21 20:45:21;;;;;;;10.45;6.53;;;33.20;22.10;;;;;;21065308;28;20048;-74
2021/07/21 20:55:23;;;;;;;15.15;6.80;;;32.80;22.30;;;;;;21082152;28;20044;-73
2021/07/21 21:05:25;;;;;;;17.05;7.78;;;32.60;22.80;;;;;;21081396;28;20149;-72
2021/07/21 21:15:28;;;;;;;13.60;7.30;;;;;;;;;;21064227;28;20040;-73
2021/07/21 21:25:30;;;;;;;14.38;7.53;;;32.30;23.60;;;;;;21079774;28;20419;-71
2021/07/21 21:35:32;;;;;;;16.85;8.88;;;32.00;24.40;;;;;;21079291;28;20040;-71
2021/07/21 21:45:34;;;;;;;13.73;7.88;;;31.70;24.90;;;;;;21079487;28;20048;-72
2021/07/21 21:55:37;;;;;;;18.20;8.20;;;31.50;25.20;;;;;;21078274;28;20144;-72
2021/07/21 22:05:38;;;;;;;12.32;8.13;;;31.10;25.80;;;;;;21082965;28;20052;-72
2021/07/21 22:15:43;;;;;;;14.82;8.43;;;30.90;26.30;;;;;;21094632;28;20040;-71
2021/07/21 22:25:50;;;;;;;12.95;8.20;;;30.50;26.90;;;;;;21095329;28;20098;-72
2021/07/21 22:35:53;;;;;;;9.63;7.47;;;30.30;27.10;;;;;;21077337;28;20048;-70
2021/07/21 22:45:54;;;;;;;12.27;8.40;;;30.10;27.20;;;;;;21095644;28;20049;-69
2021/07/21 22:55:57;;;;;;;14.55;8.30;;;29.90;27.50;;;;;;21126393;28;20051;-70
2021/07/21 23:06:36;;;;;;;13.23;7.65;;;29.80;27.80;;;;;;21074730;28;20052;-65
2021/07/21 23:16:38;;;;;;;17.73;11.60;;;29.70;27.90;;;;;;21089047;28;20048;-72
2021/07/21 23:26:40;;;;;;;15.27;9.25;;;29.60;28.40;;;;;;21088131;28;20052;-64
2021/07/21 23:36:42;;;;;;;10.88;7.22;;;29.80;28.50;;;;;;21068400;28;20048;-65
2021/07/21 23:46:47;;;;;;;11.93;8.02;;;29.60;27.30;;;;;;21085627;28;20109;-65
2021/07/21 23:56:50;;;;;;;16.08;6.65;;;29.60;27.40;;;;;;21066730;28;20087;-70
